createdAt,value
2023-03-31T00:00:19.002Z,94923.00
2023-03-31T00:01:18.088Z,94921.00
2023-03-31T00:02:18.228Z,94919.00
2023-03-31T00:03:18.297Z,94919.00
2023-03-31T00:04:18.340Z,94919.00
2023-03-31T00:05:18.484Z,94917.00
2023-03-31T00:06:19.128Z,94917.00
2023-03-31T00:07:18.387Z,94919.00
2023-03-31T00:08:18.439Z,94917.00
2023-03-31T00:09:18.487Z,94915.00
2023-03-31T00:10:18.866Z,94913.00
2023-03-31T00:11:18.573Z,94917.00
2023-03-31T00:12:18.645Z,94915.00
2023-03-31T00:13:18.651Z,94911.00
2023-03-31T00:14:18.700Z,94911.00
2023-03-31T00:15:18.738Z,94907.00
2023-03-31T00:16:18.796Z,94905.00
2023-03-31T00:17:18.803Z,94905.00
2023-03-31T00:18:18.843Z,94903.00
2023-03-31T00:19:18.896Z,94901.00
2023-03-31T00:20:18.923Z,94901.00
2023-03-31T00:21:18.982Z,94889.00
2023-03-31T00:22:19.029Z,94887.00
2023-03-31T00:23:19.077Z,94885.00
2023-03-31T00:24:19.131Z,94885.00
2023-03-31T00:25:19.168Z,94882.00
2023-03-31T00:26:19.194Z,94880.00
2023-03-31T00:27:19.206Z,94880.00
2023-03-31T00:28:19.265Z,94880.00
2023-03-31T00:29:19.264Z,94882.00
2023-03-31T00:30:19.284Z,94876.00
2023-03-31T00:31:19.343Z,94878.00
2023-03-31T00:32:19.324Z,94876.00
2023-03-31T00:33:19.358Z,94876.00
2023-03-31T00:34:19.391Z,94874.00
2023-03-31T00:35:19.432Z,94874.00
2023-03-31T00:36:19.523Z,94876.00
2023-03-31T00:37:19.539Z,94876.00
2023-03-31T00:38:19.560Z,94870.00
2023-03-31T00:39:19.637Z,94864.00
2023-03-31T00:40:19.643Z,94862.00
2023-03-31T00:41:19.711Z,94856.00
2023-03-31T00:42:19.713Z,94856.00
2023-03-31T00:43:19.774Z,94852.00
2023-03-31T00:44:19.826Z,94848.00
2023-03-31T00:45:19.815Z,94844.00
2023-03-31T00:46:19.870Z,94838.00
2023-03-31T00:47:20.515Z,94838.00
2023-03-31T00:48:19.893Z,94835.00
2023-03-31T00:49:19.904Z,94835.00
2023-03-31T00:50:19.909Z,94835.00
2023-03-31T00:51:19.912Z,94831.00
2023-03-31T00:52:19.928Z,94827.00
2023-03-31T00:53:19.934Z,94827.00
2023-03-31T00:54:19.953Z,94825.00
2023-03-31T00:55:19.991Z,94827.00
2023-03-31T00:56:20.025Z,94827.00
2023-03-31T00:57:20.063Z,94823.00
2023-03-31T00:58:20.113Z,94825.00
2023-03-31T00:59:20.106Z,94823.00
2023-03-31T01:00:20.203Z,94819.00
2023-03-31T01:01:20.157Z,94817.00
2023-03-31T01:02:20.147Z,94817.00
2023-03-31T01:03:20.236Z,94819.00
2023-03-31T01:04:20.189Z,94821.00
2023-03-31T01:05:20.252Z,94819.00
2023-03-31T01:06:20.268Z,94817.00
2023-03-31T01:07:20.308Z,94813.00
2023-03-31T01:08:20.312Z,94811.00
2023-03-31T01:09:20.336Z,94805.00
2023-03-31T01:10:20.336Z,94803.00
2023-03-31T01:11:20.370Z,94805.00
2023-03-31T01:12:20.385Z,94801.00
2023-03-31T01:13:20.436Z,94799.00
2023-03-31T01:14:20.412Z,94795.00
2023-03-31T01:15:20.440Z,94797.00
2023-03-31T01:16:20.538Z,94799.00
2023-03-31T01:17:20.630Z,94803.00
2023-03-31T01:18:20.654Z,94807.00
2023-03-31T01:19:20.557Z,94807.00
2023-03-31T01:20:20.601Z,94805.00
2023-03-31T01:21:20.603Z,94805.00
2023-03-31T01:22:20.613Z,94805.00
2023-03-31T01:23:20.642Z,94805.00
2023-03-31T01:24:20.659Z,94805.00
2023-03-31T01:25:20.669Z,94803.00
2023-03-31T01:26:20.700Z,94803.00
2023-03-31T01:27:20.709Z,94799.00
2023-03-31T01:28:20.716Z,94795.00
2023-03-31T01:29:20.750Z,94795.00
2023-03-31T01:30:20.741Z,94793.00
2023-03-31T01:31:20.785Z,94789.00
2023-03-31T01:32:20.787Z,94786.00
2023-03-31T01:33:20.768Z,94788.00
2023-03-31T01:34:20.798Z,94786.00
2023-03-31T01:35:20.787Z,94782.00
2023-03-31T01:36:20.793Z,94782.00
2023-03-31T01:37:20.799Z,94780.00
2023-03-31T01:38:20.852Z,94780.00
2023-03-31T01:39:20.853Z,94780.00
2023-03-31T01:40:20.855Z,94780.00
2023-03-31T01:41:20.852Z,94780.00
2023-03-31T01:42:20.877Z,94780.00
2023-03-31T01:43:20.866Z,94780.00
2023-03-31T01:44:20.893Z,94782.00
2023-03-31T01:45:20.892Z,94780.00
2023-03-31T01:46:20.952Z,94782.00
2023-03-31T01:47:20.923Z,94778.00
2023-03-31T01:48:20.971Z,94782.00
2023-03-31T01:49:20.956Z,94778.00
2023-03-31T01:50:20.992Z,94774.00
2023-03-31T01:51:20.987Z,94776.00
2023-03-31T01:52:21.071Z,94774.00
2023-03-31T01:53:21.005Z,94772.00
2023-03-31T01:54:21.001Z,94770.00
2023-03-31T01:55:21.026Z,94768.00
2023-03-31T01:56:21.035Z,94764.00
2023-03-31T01:57:21.094Z,94766.00
2023-03-31T01:58:21.057Z,94760.00
2023-03-31T01:59:21.053Z,94760.00
2023-03-31T02:00:21.054Z,94756.00
2023-03-31T02:01:21.073Z,94756.00
2023-03-31T02:02:21.057Z,94756.00
2023-03-31T02:03:21.150Z,94758.00
2023-03-31T02:04:21.106Z,94758.00
2023-03-31T02:05:21.072Z,94758.00
2023-03-31T02:06:21.061Z,94756.00
2023-03-31T02:07:21.066Z,94758.00
2023-03-31T02:08:21.076Z,94758.00
2023-03-31T02:09:21.095Z,94756.00
2023-03-31T02:10:21.107Z,94756.00
2023-03-31T02:11:21.120Z,94756.00
2023-03-31T02:12:21.124Z,94754.00
2023-03-31T02:13:21.154Z,94756.00
2023-03-31T02:14:21.149Z,94754.00
2023-03-31T02:15:21.154Z,94754.00
2023-03-31T02:16:21.217Z,94752.00
2023-03-31T02:17:21.158Z,94750.00
2023-03-31T02:18:21.185Z,94750.00
2023-03-31T02:19:21.205Z,94750.00
2023-03-31T02:20:21.266Z,94746.00
2023-03-31T02:21:21.227Z,94748.00
2023-03-31T02:22:21.235Z,94742.00
2023-03-31T02:23:21.270Z,94741.00
2023-03-31T02:24:21.276Z,94739.00
2023-03-31T02:25:21.282Z,94737.00
2023-03-31T02:26:21.307Z,94735.00
2023-03-31T02:27:21.352Z,94733.00
2023-03-31T02:28:21.360Z,94731.00
2023-03-31T02:29:21.368Z,94731.00
2023-03-31T02:30:21.383Z,94731.00
2023-03-31T02:31:21.406Z,94731.00
2023-03-31T02:32:21.381Z,94729.00
2023-03-31T02:33:21.395Z,94731.00
2023-03-31T02:34:21.406Z,94725.00
2023-03-31T02:35:21.435Z,94725.00
2023-03-31T02:36:21.562Z,94727.00
2023-03-31T02:37:21.472Z,94725.00
2023-03-31T02:38:21.497Z,94725.00
2023-03-31T02:39:21.515Z,94723.00
2023-03-31T02:40:21.528Z,94719.00
2023-03-31T02:41:21.558Z,94715.00
2023-03-31T02:42:21.595Z,94713.00
2023-03-31T02:43:21.694Z,94713.00
2023-03-31T02:44:21.625Z,94711.00
2023-03-31T02:45:21.624Z,94709.00
2023-03-31T02:46:21.664Z,94705.00
2023-03-31T02:47:21.723Z,94705.00
2023-03-31T02:48:21.664Z,94703.00
2023-03-31T02:49:21.643Z,94703.00
2023-03-31T02:50:22.559Z,94701.00
2023-03-31T02:51:21.651Z,94701.00
2023-03-31T02:52:21.695Z,94699.00
2023-03-31T02:53:21.691Z,94699.00
2023-03-31T02:54:21.698Z,94697.00
2023-03-31T02:55:21.730Z,94697.00
2023-03-31T02:56:21.749Z,94697.00
2023-03-31T02:57:22.619Z,94699.00
2023-03-31T02:58:21.769Z,94695.00
2023-03-31T02:59:21.785Z,94694.00
2023-03-31T03:00:21.809Z,94695.00
2023-03-31T03:01:21.834Z,94692.00
2023-03-31T03:02:21.873Z,94695.00
2023-03-31T03:03:21.933Z,94695.00
2023-03-31T03:04:21.842Z,94694.00
2023-03-31T03:05:21.853Z,94692.00
2023-03-31T03:06:21.877Z,94692.00
2023-03-31T03:07:21.888Z,94694.00
2023-03-31T03:08:21.942Z,94692.00
2023-03-31T03:09:21.937Z,94692.00
2023-03-31T03:10:21.962Z,94694.00
2023-03-31T03:11:22.345Z,94694.00
2023-03-31T03:12:22.384Z,94694.00
2023-03-31T03:13:22.401Z,94694.00
2023-03-31T03:14:22.395Z,94694.00
2023-03-31T03:15:22.394Z,94694.00
2023-03-31T03:16:23.539Z,94694.00
2023-03-31T03:17:22.391Z,94692.00
2023-03-31T03:18:22.393Z,94688.00
2023-03-31T03:19:22.393Z,94684.00
2023-03-31T03:20:22.401Z,94682.00
2023-03-31T03:21:22.395Z,94678.00
2023-03-31T03:22:22.401Z,94676.00
2023-03-31T03:23:22.394Z,94676.00
2023-03-31T03:24:22.430Z,94672.00
2023-03-31T03:25:22.399Z,94674.00
2023-03-31T03:26:22.403Z,94670.00
2023-03-31T03:27:22.417Z,94664.00
2023-03-31T03:28:22.396Z,94662.00
2023-03-31T03:29:22.447Z,94666.00
2023-03-31T03:30:22.428Z,94662.00
2023-03-31T03:31:22.559Z,94664.00
2023-03-31T03:32:22.484Z,94660.00
2023-03-31T03:33:22.528Z,94660.00
2023-03-31T03:34:22.560Z,94656.00
2023-03-31T03:35:22.584Z,94654.00
2023-03-31T03:36:22.660Z,94650.00
2023-03-31T03:37:22.631Z,94648.00
2023-03-31T03:38:22.632Z,94646.00
2023-03-31T03:39:22.639Z,94642.00
2023-03-31T03:40:22.683Z,94633.00
2023-03-31T03:41:22.652Z,94629.00
2023-03-31T03:42:22.655Z,94623.00
2023-03-31T03:43:22.663Z,94617.00
2023-03-31T03:44:22.656Z,94611.00
2023-03-31T03:45:22.650Z,94607.00
2023-03-31T03:46:22.660Z,94599.00
2023-03-31T03:47:22.753Z,94594.00
2023-03-31T03:48:22.675Z,94594.00
2023-03-31T03:49:22.731Z,94597.00
2023-03-31T03:50:22.682Z,94590.00
2023-03-31T03:51:22.684Z,94588.00
2023-03-31T03:52:22.703Z,94588.00
2023-03-31T03:53:22.716Z,94582.00
2023-03-31T03:54:22.703Z,94582.00
2023-03-31T03:55:22.705Z,94586.00
2023-03-31T03:56:22.743Z,94590.00
2023-03-31T03:57:22.855Z,94590.00
2023-03-31T03:58:22.737Z,94588.00
2023-03-31T03:59:22.736Z,94588.00
2023-03-31T04:00:22.719Z,94590.00
2023-03-31T04:01:22.739Z,94590.00
2023-03-31T04:02:23.624Z,94590.00
2023-03-31T04:03:23.044Z,94586.00
2023-03-31T04:04:22.949Z,94582.00
2023-03-31T04:05:23.036Z,94576.00
2023-03-31T04:06:22.975Z,94572.00
2023-03-31T04:07:23.018Z,94568.00
2023-03-31T04:08:23.381Z,94564.00
2023-03-31T04:09:23.376Z,94564.00
2023-03-31T04:10:23.408Z,94560.00
2023-03-31T04:11:23.420Z,94554.00
2023-03-31T04:12:23.445Z,94550.00
2023-03-31T04:13:23.431Z,94548.00
2023-03-31T04:14:23.423Z,94545.00
2023-03-31T04:15:23.426Z,94547.00
2023-03-31T04:16:23.652Z,94543.00
2023-03-31T04:17:23.466Z,94543.00
2023-03-31T04:18:23.528Z,94547.00
2023-03-31T04:19:23.418Z,94550.00
2023-03-31T04:20:23.420Z,94548.00
2023-03-31T04:21:23.437Z,94543.00
2023-03-31T04:22:23.431Z,94539.00
2023-03-31T04:23:23.442Z,94539.00
2023-03-31T04:24:23.435Z,94537.00
2023-03-31T04:25:23.422Z,94539.00
2023-03-31T04:26:23.425Z,94539.00
2023-03-31T04:27:23.419Z,94539.00
2023-03-31T04:28:23.450Z,94531.00
2023-03-31T04:29:23.443Z,94531.00
2023-03-31T04:30:23.435Z,94525.00
2023-03-31T04:31:23.453Z,94525.00
2023-03-31T04:32:23.464Z,94521.00
2023-03-31T04:33:23.474Z,94521.00
2023-03-31T04:34:23.515Z,94521.00
2023-03-31T04:35:23.521Z,94525.00
2023-03-31T04:36:23.550Z,94529.00
2023-03-31T04:37:23.585Z,94535.00
2023-03-31T04:38:23.632Z,94537.00
2023-03-31T04:39:23.635Z,94535.00
2023-03-31T04:40:23.658Z,94537.00
2023-03-31T04:41:23.679Z,94533.00
2023-03-31T04:42:23.697Z,94529.00
2023-03-31T04:43:23.751Z,94529.00
2023-03-31T04:44:23.809Z,94529.00
2023-03-31T04:45:23.805Z,94531.00
2023-03-31T04:46:23.932Z,94535.00
2023-03-31T04:47:23.881Z,94539.00
2023-03-31T04:48:23.892Z,94541.00
2023-03-31T04:49:23.914Z,94539.00
2023-03-31T04:50:23.916Z,94535.00
2023-03-31T04:51:23.914Z,94533.00
2023-03-31T04:52:23.919Z,94531.00
2023-03-31T04:53:23.946Z,94525.00
2023-03-31T04:54:24.004Z,94525.00
2023-03-31T04:55:24.049Z,94519.00
2023-03-31T04:56:24.078Z,94523.00
2023-03-31T04:57:24.135Z,94521.00
2023-03-31T04:58:24.094Z,94523.00
2023-03-31T04:59:24.119Z,94517.00
2023-03-31T05:00:24.157Z,94515.00
2023-03-31T05:01:24.247Z,94509.00
2023-03-31T05:02:25.483Z,94505.00
2023-03-31T05:03:24.381Z,94501.00
2023-03-31T05:04:24.223Z,94503.00
2023-03-31T05:05:24.263Z,94501.00
2023-03-31T05:06:24.263Z,94496.00
2023-03-31T05:07:24.290Z,94488.00
2023-03-31T05:08:25.115Z,94486.00
2023-03-31T05:09:24.328Z,94484.00
2023-03-31T05:10:24.354Z,94484.00
2023-03-31T05:11:24.378Z,94480.00
2023-03-31T05:12:24.398Z,94472.00
2023-03-31T05:13:24.409Z,94472.00
2023-03-31T05:14:24.410Z,94470.00
2023-03-31T05:15:24.418Z,94470.00
2023-03-31T05:16:24.499Z,94468.00
2023-03-31T05:17:24.688Z,94464.00
2023-03-31T05:18:24.447Z,94460.00
2023-03-31T05:19:24.440Z,94454.00
2023-03-31T05:20:24.482Z,94456.00
2023-03-31T05:21:24.486Z,94472.00
2023-03-31T05:22:24.627Z,94468.00
2023-03-31T05:23:24.549Z,94468.00
2023-03-31T05:24:24.577Z,94458.00
2023-03-31T05:25:25.139Z,94450.00
2023-03-31T05:26:24.626Z,94450.00
2023-03-31T05:27:24.666Z,94448.00
2023-03-31T05:28:24.703Z,94443.00
2023-03-31T05:29:24.753Z,94441.00
2023-03-31T05:30:24.813Z,94446.00
2023-03-31T05:31:24.869Z,94448.00
2023-03-31T05:32:24.940Z,94441.00
2023-03-31T05:33:25.131Z,94437.00
2023-03-31T05:34:24.938Z,94437.00
2023-03-31T05:35:24.989Z,94437.00
2023-03-31T05:36:25.663Z,94435.00
2023-03-31T05:37:25.097Z,94437.00
2023-03-31T05:38:25.130Z,94433.00
2023-03-31T05:39:25.192Z,94427.00
2023-03-31T05:40:25.253Z,94425.00
2023-03-31T05:41:25.637Z,94419.00
2023-03-31T05:42:26.131Z,94409.00
2023-03-31T05:43:25.633Z,94407.00
2023-03-31T05:44:25.636Z,94411.00
2023-03-31T05:45:25.525Z,94417.00
2023-03-31T05:46:25.605Z,94411.00
2023-03-31T05:47:25.670Z,94409.00
2023-03-31T05:48:25.732Z,94407.00
2023-03-31T05:49:26.142Z,94407.00
2023-03-31T05:50:25.829Z,94399.00
2023-03-31T05:51:25.861Z,94394.00
2023-03-31T05:52:26.010Z,94392.00
2023-03-31T05:53:26.161Z,94396.00
2023-03-31T05:54:26.134Z,94396.00
2023-03-31T05:55:26.028Z,94394.00
2023-03-31T05:56:27.053Z,94392.00
2023-03-31T05:57:26.192Z,94396.00
2023-03-31T05:58:26.638Z,94398.00
2023-03-31T05:59:26.487Z,94394.00
2023-03-31T06:00:29.732Z,94390.00
2023-03-31T06:01:26.827Z,94390.00
2023-03-31T06:02:27.160Z,94376.00
2023-03-31T06:03:26.721Z,94372.00
2023-03-31T06:04:26.547Z,94366.00
2023-03-31T06:05:26.493Z,94358.00
2023-03-31T06:06:26.490Z,94351.00
2023-03-31T06:07:26.538Z,94351.00
2023-03-31T06:08:26.641Z,94356.00
2023-03-31T06:09:26.512Z,94360.00
2023-03-31T06:10:26.495Z,94368.00
2023-03-31T06:11:26.488Z,94370.00
2023-03-31T06:12:26.498Z,94370.00
2023-03-31T06:13:26.674Z,94366.00
2023-03-31T06:14:26.513Z,94358.00
2023-03-31T06:15:26.550Z,94347.00
2023-03-31T06:16:26.688Z,94335.00
2023-03-31T06:17:26.725Z,94333.00
2023-03-31T06:18:27.501Z,94329.00
2023-03-31T06:19:26.771Z,94329.00
2023-03-31T06:20:28.571Z,94335.00
2023-03-31T06:21:26.815Z,94339.00
2023-03-31T06:22:26.811Z,94339.00
2023-03-31T06:23:27.510Z,94341.00
2023-03-31T06:24:26.820Z,94341.00
2023-03-31T06:25:30.652Z,94341.00
2023-03-31T06:26:26.790Z,94339.00
2023-03-31T06:27:26.802Z,94341.00
2023-03-31T06:28:27.513Z,94339.00
2023-03-31T06:29:26.756Z,94335.00
2023-03-31T06:30:26.784Z,94331.00
2023-03-31T06:31:26.831Z,94333.00
2023-03-31T06:32:26.873Z,94333.00
2023-03-31T06:33:27.505Z,94329.00
2023-03-31T06:34:26.731Z,94327.00
2023-03-31T06:35:26.720Z,94321.00
2023-03-31T06:36:26.740Z,94321.00
2023-03-31T06:37:26.721Z,94317.00
2023-03-31T06:38:27.512Z,94313.00
2023-03-31T06:39:28.224Z,94311.00
2023-03-31T06:40:27.538Z,94309.00
2023-03-31T06:41:27.027Z,94307.00
2023-03-31T06:42:26.958Z,94311.00
2023-03-31T06:43:27.018Z,94307.00
2023-03-31T06:44:27.093Z,94306.00
2023-03-31T06:45:27.515Z,94300.00
2023-03-31T06:46:27.555Z,94298.00
2023-03-31T06:47:27.578Z,94302.00
2023-03-31T06:48:27.663Z,94315.00
2023-03-31T06:49:27.510Z,94317.00
2023-03-31T06:50:27.524Z,94321.00
2023-03-31T06:51:27.516Z,94321.00
2023-03-31T06:52:27.607Z,94317.00
2023-03-31T06:53:27.658Z,94315.00
2023-03-31T06:54:27.684Z,94311.00
2023-03-31T06:55:27.719Z,94304.00
2023-03-31T06:56:27.766Z,94302.00
2023-03-31T06:57:27.926Z,94302.00
2023-03-31T06:58:31.199Z,94294.00
2023-03-31T06:59:28.172Z,94288.00
2023-03-31T07:00:27.956Z,94286.00
2023-03-31T07:01:27.869Z,94286.00
2023-03-31T07:02:27.885Z,94290.00
2023-03-31T07:03:27.944Z,94290.00
2023-03-31T07:04:28.157Z,94294.00
2023-03-31T07:05:27.815Z,94300.00
2023-03-31T07:06:27.786Z,94307.00
2023-03-31T07:07:27.796Z,94311.00
2023-03-31T07:08:28.204Z,94315.00
2023-03-31T07:09:27.768Z,94317.00
2023-03-31T07:10:27.760Z,94317.00
2023-03-31T07:11:27.753Z,94319.00
2023-03-31T07:12:27.733Z,94323.00
2023-03-31T07:13:28.169Z,94323.00
2023-03-31T07:14:27.731Z,94323.00
2023-03-31T07:15:27.771Z,94319.00
2023-03-31T07:16:27.915Z,94317.00
2023-03-31T07:17:27.922Z,94311.00
2023-03-31T07:18:28.164Z,94300.00
2023-03-31T07:19:27.969Z,94292.00
2023-03-31T07:20:28.018Z,94286.00
2023-03-31T07:21:28.055Z,94280.00
2023-03-31T07:22:28.082Z,94276.00
2023-03-31T07:23:28.173Z,94274.00
2023-03-31T07:24:28.202Z,94264.00
2023-03-31T07:25:28.188Z,94260.00
2023-03-31T07:26:28.210Z,94259.00
2023-03-31T07:27:28.195Z,94257.00
2023-03-31T07:28:28.674Z,94257.00
2023-03-31T07:29:28.223Z,94257.00
2023-03-31T07:30:28.240Z,94257.00
2023-03-31T07:31:28.307Z,94253.00
2023-03-31T07:32:29.201Z,94243.00
2023-03-31T07:33:28.688Z,94237.00
2023-03-31T07:34:28.437Z,94241.00
2023-03-31T07:35:28.470Z,94243.00
2023-03-31T07:36:28.516Z,94247.00
2023-03-31T07:37:28.473Z,94243.00
2023-03-31T07:38:28.679Z,94247.00
2023-03-31T07:39:28.675Z,94243.00
2023-03-31T07:40:28.700Z,94233.00
2023-03-31T07:41:28.478Z,94229.00
2023-03-31T07:42:29.207Z,94225.00
2023-03-31T07:43:28.425Z,94223.00
2023-03-31T07:44:28.685Z,94219.00
2023-03-31T07:45:28.702Z,94219.00
2023-03-31T07:46:28.462Z,94221.00
2023-03-31T07:47:28.431Z,94217.00
2023-03-31T07:48:29.182Z,94223.00
2023-03-31T07:49:29.175Z,94221.00
2023-03-31T07:50:29.365Z,94219.00
2023-03-31T07:51:28.359Z,94217.00
2023-03-31T07:52:28.351Z,94219.00
2023-03-31T07:53:28.350Z,94223.00
2023-03-31T07:54:28.676Z,94225.00
2023-03-31T07:55:28.689Z,94223.00
2023-03-31T07:56:28.350Z,94217.00
2023-03-31T07:57:28.394Z,94219.00
2023-03-31T07:58:28.680Z,94225.00
2023-03-31T07:59:28.437Z,94225.00
2023-03-31T08:00:28.494Z,94219.00
2023-03-31T08:01:28.549Z,94219.00
2023-03-31T08:02:28.687Z,94212.00
2023-03-31T08:03:28.700Z,94212.00
2023-03-31T08:04:29.233Z,94213.00
2023-03-31T08:05:28.739Z,94206.00
2023-03-31T08:06:28.783Z,94194.00
2023-03-31T08:07:28.827Z,94194.00
2023-03-31T08:08:29.189Z,94196.00
2023-03-31T08:09:29.563Z,94198.00
2023-03-31T08:10:32.181Z,94198.00
2023-03-31T08:11:29.573Z,94192.00
2023-03-31T08:12:29.617Z,94186.00
2023-03-31T08:13:28.915Z,94182.00
2023-03-31T08:14:38.297Z,94180.00
2023-03-31T08:15:28.902Z,94182.00
2023-03-31T08:16:28.916Z,94182.00
2023-03-31T08:17:28.938Z,94184.00
2023-03-31T08:18:28.897Z,94184.00
2023-03-31T08:19:28.876Z,94184.00
2023-03-31T08:20:28.880Z,94180.00
2023-03-31T08:21:29.565Z,94178.00
2023-03-31T08:22:28.856Z,94172.00
2023-03-31T08:23:29.684Z,94176.00
2023-03-31T08:24:28.915Z,94176.00
2023-03-31T08:25:28.837Z,94172.00
2023-03-31T08:26:29.565Z,94170.00
2023-03-31T08:27:28.825Z,94170.00
2023-03-31T08:28:28.847Z,94166.00
2023-03-31T08:29:28.806Z,94166.00
2023-03-31T08:30:29.048Z,94166.00
2023-03-31T08:31:29.263Z,94160.00
2023-03-31T08:32:28.803Z,94160.00
2023-03-31T08:33:27.783Z,94158.00
2023-03-31T08:34:28.778Z,94155.00
2023-03-31T08:35:29.568Z,94149.00
2023-03-31T08:36:28.759Z,94143.00
2023-03-31T08:37:32.195Z,94149.00
2023-03-31T08:38:28.764Z,94145.00
2023-03-31T08:39:28.742Z,94147.00
2023-03-31T08:40:28.753Z,94145.00
2023-03-31T08:41:29.688Z,94147.00
2023-03-31T08:42:29.195Z,94145.00
2023-03-31T08:43:28.702Z,94149.00
2023-03-31T08:44:28.724Z,94149.00
2023-03-31T08:45:28.790Z,94149.00
2023-03-31T08:46:28.719Z,94149.00
2023-03-31T08:47:28.703Z,94145.00
2023-03-31T08:48:28.677Z,94145.00
2023-03-31T08:49:28.666Z,94143.00
2023-03-31T08:50:28.652Z,94137.00
2023-03-31T08:51:28.648Z,94133.00
2023-03-31T08:52:28.697Z,94129.00
2023-03-31T08:53:29.091Z,94117.00
2023-03-31T08:54:28.865Z,94113.00
2023-03-31T08:55:28.632Z,94115.00
2023-03-31T08:56:28.608Z,94119.00
2023-03-31T08:57:29.331Z,94117.00
2023-03-31T08:58:28.591Z,94115.00
2023-03-31T08:59:28.728Z,94113.00
2023-03-31T09:00:28.632Z,94108.00
2023-03-31T09:01:29.305Z,94104.00
2023-03-31T09:02:28.791Z,94096.00
2023-03-31T09:03:28.694Z,94094.00
2023-03-31T09:04:28.704Z,94094.00
2023-03-31T09:05:28.971Z,94098.00
2023-03-31T09:06:29.210Z,94098.00
2023-03-31T09:07:28.825Z,94098.00
2023-03-31T09:08:28.866Z,94096.00
2023-03-31T09:09:28.898Z,94100.00
2023-03-31T09:10:29.211Z,94098.00
2023-03-31T09:11:28.984Z,94098.00
2023-03-31T09:12:29.035Z,94094.00
2023-03-31T09:13:29.354Z,94100.00
2023-03-31T09:14:31.710Z,94100.00
2023-03-31T09:15:29.011Z,94100.00
2023-03-31T09:16:29.029Z,94096.00
2023-03-31T09:17:29.025Z,94094.00
2023-03-31T09:18:29.217Z,94090.00
2023-03-31T09:19:28.979Z,94090.00
2023-03-31T09:20:28.991Z,94086.00
2023-03-31T09:21:29.011Z,94086.00
2023-03-31T09:22:29.225Z,94084.00
2023-03-31T09:23:29.054Z,94084.00
2023-03-31T09:24:29.802Z,94078.00
2023-03-31T09:25:28.936Z,94078.00
2023-03-31T09:26:29.236Z,94074.00
2023-03-31T09:27:28.932Z,94076.00
2023-03-31T09:28:29.711Z,94074.00
2023-03-31T09:29:29.248Z,94076.00
2023-03-31T09:30:28.915Z,94078.00
2023-03-31T09:31:28.915Z,94074.00
2023-03-31T09:32:28.948Z,94076.00
2023-03-31T09:33:28.890Z,94074.00
2023-03-31T09:34:29.214Z,94070.00
2023-03-31T09:35:28.914Z,94065.00
2023-03-31T09:36:28.990Z,94057.00
2023-03-31T09:37:29.246Z,94059.00
2023-03-31T09:38:28.864Z,94057.00
2023-03-31T09:39:28.964Z,94055.00
2023-03-31T09:40:28.850Z,94053.00
2023-03-31T09:41:28.848Z,94055.00
2023-03-31T09:42:29.260Z,94057.00
2023-03-31T09:43:28.819Z,94055.00
2023-03-31T09:44:32.080Z,94053.00
2023-03-31T09:45:28.809Z,94049.00
2023-03-31T09:46:28.846Z,94051.00
2023-03-31T09:47:29.272Z,94047.00
2023-03-31T09:48:28.901Z,94043.00
2023-03-31T09:49:29.234Z,94043.00
2023-03-31T09:50:29.233Z,94043.00
2023-03-31T09:51:28.792Z,94039.00
2023-03-31T09:52:28.779Z,94039.00
2023-03-31T09:53:28.756Z,94037.00
2023-03-31T09:54:29.225Z,94037.00
2023-03-31T09:55:38.401Z,94039.00
2023-03-31T09:56:28.729Z,94035.00
2023-03-31T09:57:31.236Z,94029.00
2023-03-31T09:58:28.724Z,94023.00
2023-03-31T09:59:28.701Z,94016.00
2023-03-31T10:00:28.695Z,94016.00
2023-03-31T10:01:28.739Z,94018.00
2023-03-31T10:02:28.772Z,94027.00
2023-03-31T10:03:28.699Z,94027.00
2023-03-31T10:04:28.786Z,94027.00
2023-03-31T10:05:28.919Z,94031.00
2023-03-31T10:06:28.675Z,94035.00
2023-03-31T10:07:28.651Z,94031.00
2023-03-31T10:08:28.668Z,94033.00
2023-03-31T10:09:28.669Z,94033.00
2023-03-31T10:10:28.740Z,94035.00
2023-03-31T10:11:28.777Z,94037.00
2023-03-31T10:12:28.816Z,94037.00
2023-03-31T10:13:28.855Z,94035.00
2023-03-31T10:14:29.239Z,94033.00
2023-03-31T10:15:29.625Z,94035.00
2023-03-31T10:16:29.678Z,94039.00
2023-03-31T10:17:29.058Z,94031.00
2023-03-31T10:18:29.056Z,94027.00
2023-03-31T10:19:29.762Z,94023.00
2023-03-31T10:20:29.593Z,94021.00
2023-03-31T10:21:29.111Z,94019.00
2023-03-31T10:22:29.117Z,94019.00
2023-03-31T10:23:29.137Z,94018.00
2023-03-31T10:24:29.166Z,94012.00
2023-03-31T10:25:29.592Z,94010.00
2023-03-31T10:26:29.589Z,94006.00
2023-03-31T10:27:30.598Z,94008.00
2023-03-31T10:28:29.634Z,94004.00
2023-03-31T10:29:30.695Z,94010.00
2023-03-31T10:30:30.601Z,94008.00
2023-03-31T10:31:29.682Z,94006.00
2023-03-31T10:32:29.685Z,94008.00
2023-03-31T10:33:29.838Z,94012.00
2023-03-31T10:34:29.643Z,94008.00
2023-03-31T10:35:29.791Z,94012.00
2023-03-31T10:36:29.693Z,94019.00
2023-03-31T10:37:29.671Z,94023.00
2023-03-31T10:38:30.072Z,94031.00
2023-03-31T10:39:29.741Z,94039.00
2023-03-31T10:40:29.640Z,94043.00
2023-03-31T10:41:29.761Z,94041.00
2023-03-31T10:42:29.717Z,94035.00
2023-03-31T10:43:29.760Z,94033.00
2023-03-31T10:44:29.819Z,94031.00
2023-03-31T10:45:37.312Z,94039.00
2023-03-31T10:46:29.889Z,94043.00
2023-03-31T10:47:29.912Z,94035.00
2023-03-31T10:48:29.870Z,94039.00
2023-03-31T10:49:29.852Z,94039.00
2023-03-31T10:50:30.597Z,94041.00
2023-03-31T10:51:32.760Z,94041.00
2023-03-31T10:52:29.818Z,94041.00
2023-03-31T10:53:29.820Z,94033.00
2023-03-31T10:54:29.807Z,94031.00
2023-03-31T10:55:30.742Z,94027.00
2023-03-31T10:56:30.787Z,94025.00
2023-03-31T10:57:29.835Z,94014.00
2023-03-31T10:58:29.772Z,94008.00
2023-03-31T10:59:29.769Z,94004.00
2023-03-31T11:00:30.645Z,94004.00
2023-03-31T11:01:29.761Z,93998.00
2023-03-31T11:02:29.895Z,94002.00
2023-03-31T11:03:29.821Z,93998.00
2023-03-31T11:04:29.730Z,93998.00
2023-03-31T11:05:29.714Z,93992.00
2023-03-31T11:06:29.744Z,93988.00
2023-03-31T11:07:29.732Z,93988.00
2023-03-31T11:08:30.402Z,93988.00
2023-03-31T11:09:29.695Z,93988.00
2023-03-31T11:10:30.239Z,93984.00
2023-03-31T11:11:29.749Z,93986.00
2023-03-31T11:12:29.673Z,93984.00
2023-03-31T11:13:29.689Z,93988.00
2023-03-31T11:14:30.987Z,93988.00
2023-03-31T11:15:29.752Z,93988.00
2023-03-31T11:16:30.363Z,93982.00
2023-03-31T11:17:29.835Z,93980.00
2023-03-31T11:18:30.750Z,93974.00
2023-03-31T11:19:29.920Z,93976.00
2023-03-31T11:20:31.031Z,93976.00
2023-03-31T11:21:30.247Z,93976.00
2023-03-31T11:22:30.051Z,93974.00
2023-03-31T11:23:30.100Z,93976.00
2023-03-31T11:24:30.104Z,93976.00
2023-03-31T11:25:32.865Z,93971.00
2023-03-31T11:26:30.940Z,93969.00
2023-03-31T11:27:30.113Z,93971.00
2023-03-31T11:28:30.106Z,93971.00
2023-03-31T11:29:30.098Z,93969.00
2023-03-31T11:30:30.262Z,93969.00
2023-03-31T11:31:30.124Z,93969.00
2023-03-31T11:32:31.449Z,93969.00
2023-03-31T11:33:30.755Z,93967.00
2023-03-31T11:34:30.664Z,93965.00
2023-03-31T11:35:30.674Z,93963.00
2023-03-31T11:36:30.670Z,93967.00
2023-03-31T11:37:30.671Z,93971.00
2023-03-31T11:38:30.677Z,93972.00
2023-03-31T11:39:30.705Z,93978.00
2023-03-31T11:40:30.671Z,93978.00
2023-03-31T11:41:30.676Z,93974.00
2023-03-31T11:42:30.667Z,93974.00
2023-03-31T11:43:30.688Z,93972.00
2023-03-31T11:44:30.673Z,93971.00